createdAt,value
2023-04-01T00:02:02.169Z,3.53
2023-04-01T00:04:29.913Z,5.57
2023-04-01T00:06:57.768Z,4.05
2023-04-01T00:09:25.027Z,4.82
2023-04-01T00:11:57.733Z,11.15
2023-04-01T00:14:25.019Z,5.18
2023-04-01T00:16:57.895Z,8.13
2023-04-01T00:19:25.467Z,5.40
2023-04-01T00:21:53.243Z,8.02
2023-04-01T00:24:20.492Z,9.80
2023-04-01T00:26:48.636Z,6.55
2023-04-01T00:29:19.452Z,4.28
2023-04-01T00:31:47.012Z,6.28
2023-04-01T00:34:14.276Z,3.83
2023-04-01T00:36:41.804Z,6.35
2023-04-01T00:39:09.104Z,5.05
2023-04-01T00:41:36.495Z,3.00
2023-04-01T00:44:17.309Z,4.97
2023-04-01T00:46:44.735Z,11.70
2023-04-01T00:49:12.035Z,4.57
2023-04-01T00:51:39.310Z,5.40
2023-04-01T00:54:07.102Z,4.60
2023-04-01T00:56:49.686Z,6.15
2023-04-01T00:59:20.277Z,4.15
2023-04-01T01:01:47.774Z,8.32
2023-04-01T01:04:27.963Z,5.68
2023-04-01T01:06:57.867Z,7.15
2023-04-01T01:10:01.270Z,5.63
2023-04-01T01:12:57.342Z,4.63
2023-04-01T01:15:26.316Z,5.82
2023-04-01T01:18:17.766Z,9.25
2023-04-01T01:23:35.978Z,5.47
2023-04-01T01:26:34.085Z,10.70
2023-04-01T01:29:07.233Z,3.92
2023-04-01T01:31:39.092Z,8.18
2023-04-01T01:34:23.654Z,12.02
2023-04-01T01:36:54.698Z,9.77
2023-04-01T01:39:22.162Z,3.42
2023-04-01T01:41:50.430Z,5.47
2023-04-01T01:44:17.682Z,3.88
2023-04-01T01:46:45.314Z,12.52
2023-04-01T01:49:12.871Z,7.53
2023-04-01T01:51:41.028Z,5.68
2023-04-01T01:54:08.289Z,4.35
2023-04-01T01:56:36.241Z,3.55
2023-04-01T01:59:08.729Z,5.47
2023-04-01T02:01:39.002Z,6.68
2023-04-01T02:04:06.423Z,4.67
2023-04-01T02:06:39.738Z,5.10
2023-04-01T02:09:08.651Z,5.95
2023-04-01T02:11:38.857Z,3.40
2023-04-01T02:14:19.337Z,10.75
2023-04-01T02:16:56.901Z,7.25
2023-04-01T02:19:27.999Z,4.65
2023-04-01T02:24:24.904Z,3.92
2023-04-01T02:26:56.676Z,6.18
2023-04-01T02:29:24.775Z,9.13
2023-04-01T02:31:52.105Z,4.18
2023-04-01T02:34:20.930Z,5.35
2023-04-01T02:36:49.224Z,7.38
2023-04-01T02:39:17.050Z,3.65
2023-04-01T02:41:45.413Z,5.78
2023-04-01T02:44:13.429Z,6.32
2023-04-01T02:46:42.681Z,13.48
2023-04-01T02:49:09.987Z,6.80
2023-04-01T02:51:37.492Z,5.85
2023-04-01T02:54:05.150Z,5.88
2023-04-01T02:56:32.459Z,4.30
2023-04-01T02:59:00.993Z,7.38
2023-04-01T03:01:28.449Z,6.10
2023-04-01T03:03:55.969Z,5.68
2023-04-01T03:06:23.182Z,4.88
2023-04-01T03:08:50.571Z,4.90
2023-04-01T03:11:17.854Z,4.00
2023-04-01T03:13:45.121Z,7.75
2023-04-01T03:16:12.369Z,4.88
2023-04-01T03:18:39.746Z,3.65
2023-04-01T03:21:23.878Z,3.10
2023-04-01T03:23:51.189Z,4.38
2023-04-01T03:26:19.137Z,9.00
2023-04-01T03:28:46.977Z,4.13
2023-04-01T03:31:14.562Z,7.78
2023-04-01T03:33:42.953Z,4.30
2023-04-01T03:36:12.550Z,5.85
2023-04-01T03:38:41.979Z,4.88
2023-04-01T03:41:13.445Z,6.32
2023-04-01T03:43:40.868Z,4.47
2023-04-01T03:46:10.919Z,10.35
2023-04-01T03:48:38.555Z,8.98
2023-04-01T03:51:08.749Z,5.22
2023-04-01T03:53:36.833Z,4.22
2023-04-01T03:56:08.191Z,9.52
2023-04-01T04:01:02.942Z,4.10
2023-04-01T04:03:32.397Z,6.20
2023-04-01T04:06:04.064Z,5.22
2023-04-01T04:08:32.155Z,6.47
2023-04-01T04:10:59.711Z,6.93
2023-04-01T04:13:29.149Z,5.70
2023-04-01T04:15:56.397Z,11.13
2023-04-01T04:18:23.737Z,5.85
2023-04-01T04:20:52.235Z,4.97
2023-04-01T04:23:19.701Z,10.05
2023-04-01T04:26:03.055Z,9.05
2023-04-01T04:28:30.622Z,7.75
2023-04-01T04:30:57.995Z,6.13
2023-04-01T04:33:26.084Z,4.18
2023-04-01T04:35:56.218Z,13.80
2023-04-01T04:38:23.720Z,9.70
2023-04-01T04:40:51.494Z,7.05
2023-04-01T04:43:18.944Z,6.53
2023-04-01T04:45:46.361Z,9.02
2023-04-01T04:48:17.559Z,8.55
2023-04-01T04:50:50.867Z,5.18
2023-04-01T04:55:52.783Z,7.82
2023-04-01T04:58:20.766Z,7.80
2023-04-01T05:00:48.300Z,6.95
2023-04-01T05:03:17.552Z,9.20
2023-04-01T05:05:52.763Z,4.38
2023-04-01T05:08:20.374Z,6.80
2023-04-01T05:10:48.336Z,7.93
2023-04-01T05:13:16.391Z,5.00
2023-04-01T05:15:45.715Z,3.95
2023-04-01T05:18:15.543Z,11.02
2023-04-01T05:20:50.727Z,7.57
2023-04-01T05:23:23.581Z,4.27
2023-04-01T05:25:53.727Z,7.22
2023-04-01T05:28:21.262Z,11.15
2023-04-01T05:30:49.423Z,9.23
2023-04-01T05:33:17.184Z,4.75
2023-04-01T05:35:44.554Z,5.50
2023-04-01T05:38:14.034Z,8.27
2023-04-01T05:40:41.629Z,5.50
2023-04-01T05:43:08.918Z,8.25
2023-04-01T05:45:37.725Z,8.18
2023-04-01T05:48:05.367Z,6.63
2023-04-01T05:50:32.671Z,7.35
2023-04-01T05:52:59.925Z,6.20
2023-04-01T05:55:27.160Z,6.47
2023-04-01T05:57:56.182Z,7.40
2023-04-01T06:00:23.406Z,11.10
2023-04-01T06:03:10.583Z,5.45
2023-04-01T06:05:42.487Z,8.93
2023-04-01T06:08:20.413Z,5.53
2023-04-01T06:11:06.886Z,8.25
2023-04-01T06:13:44.270Z,4.20
2023-04-01T06:16:50.759Z,12.93
2023-04-01T06:19:26.802Z,9.88
2023-04-01T06:22:24.972Z,8.70
2023-04-01T06:25:16.998Z,10.93
2023-04-01T06:27:56.425Z,8.32
2023-04-01T06:30:46.018Z,9.77
2023-04-01T06:33:33.600Z,6.45
2023-04-01T06:36:24.556Z,8.93
2023-04-01T06:39:00.919Z,7.03
2023-04-01T06:41:53.398Z,9.23
2023-04-01T06:44:26.262Z,10.60
2023-04-01T06:47:00.590Z,13.25
2023-04-01T06:49:37.293Z,9.95
2023-04-01T06:52:29.263Z,17.15
2023-04-01T06:55:38.824Z,9.02
2023-04-01T06:58:10.595Z,11.63
2023-04-01T07:00:40.389Z,8.27
2023-04-01T07:03:08.769Z,8.43
2023-04-01T07:05:36.923Z,13.98
2023-04-01T07:08:06.286Z,11.18
2023-04-01T07:11:05.580Z,19.33
2023-04-01T07:13:35.480Z,11.75
2023-04-01T07:16:14.929Z,11.52
2023-04-01T07:18:46.180Z,12.10
2023-04-01T07:21:23.450Z,12.65
2023-04-01T07:23:50.815Z,17.35
2023-04-01T07:26:24.832Z,11.63
2023-04-01T07:28:52.642Z,12.10
2023-04-01T07:31:21.582Z,11.38
2023-04-01T07:33:58.895Z,15.18
2023-04-01T07:36:48.150Z,10.20
2023-04-01T07:39:27.480Z,12.82
2023-04-01T07:42:17.137Z,13.48
2023-04-01T07:45:15.551Z,9.25
2023-04-01T07:48:34.049Z,10.70
2023-04-01T07:51:16.563Z,17.63
2023-04-01T07:54:00.194Z,6.95
2023-04-01T07:56:52.244Z,12.77
2023-04-01T07:59:35.038Z,13.23
2023-04-01T08:02:21.000Z,10.63
2023-04-01T08:05:31.310Z,12.80
2023-04-01T08:08:12.672Z,12.15
2023-04-01T08:13:10.437Z,11.18
2023-04-01T08:15:51.189Z,10.75
2023-04-01T08:18:47.669Z,11.30
2023-04-01T08:21:33.379Z,12.57
2023-04-01T08:24:06.322Z,12.45
2023-04-01T08:26:37.246Z,10.45
2023-04-01T08:29:39.205Z,13.02
2023-04-01T08:32:26.771Z,11.85
2023-04-01T08:35:22.893Z,9.82
2023-04-01T08:37:50.561Z,10.00
2023-04-01T08:40:21.025Z,9.60
2023-04-01T08:43:11.522Z,16.85
2023-04-01T08:46:03.730Z,13.93
2023-04-01T08:48:41.748Z,12.50
2023-04-01T08:51:45.840Z,9.45
2023-04-01T08:54:55.404Z,10.05
2023-04-01T08:57:48.726Z,16.98
2023-04-01T09:00:33.002Z,13.52
2023-04-01T09:03:25.556Z,9.68
2023-04-01T09:08:53.979Z,14.25
2023-04-01T09:11:42.797Z,14.98
2023-04-01T09:14:25.428Z,14.88
2023-04-01T09:16:59.013Z,17.73
2023-04-01T09:19:44.923Z,15.18
2023-04-01T09:22:33.657Z,11.50
2023-04-01T09:25:09.845Z,8.77
2023-04-01T09:27:52.380Z,13.13
2023-04-01T09:30:58.136Z,9.48
2023-04-01T09:36:18.237Z,11.10
2023-04-01T09:38:54.457Z,13.05
2023-04-01T09:41:47.634Z,13.30
2023-04-01T09:44:20.043Z,12.75
2023-04-01T09:47:08.308Z,9.38
2023-04-01T09:50:01.119Z,12.32
2023-04-01T09:52:46.477Z,12.45
2023-04-01T09:55:38.272Z,15.55
2023-04-01T09:58:26.530Z,11.70
2023-04-01T10:01:37.634Z,11.38
2023-04-01T10:04:23.369Z,16.83
2023-04-01T10:07:10.150Z,19.98
2023-04-01T10:10:05.570Z,21.70
2023-04-01T10:12:56.335Z,10.15
2023-04-01T10:15:29.663Z,19.07
2023-04-01T10:18:45.447Z,18.02
2023-04-01T10:21:18.894Z,14.32
2023-04-01T10:24:07.206Z,15.10
2023-04-01T10:26:43.295Z,16.55
2023-04-01T10:29:48.067Z,16.63
2023-04-01T10:32:30.710Z,19.42
2023-04-01T10:35:06.880Z,13.00
2023-04-01T10:38:08.106Z,17.13
2023-04-01T10:41:12.867Z,10.80
2023-04-01T10:44:15.535Z,15.70
2023-04-01T10:47:16.179Z,14.13
2023-04-01T10:49:45.892Z,12.80
2023-04-01T10:52:31.662Z,15.10
2023-04-01T10:55:36.786Z,15.48
2023-04-01T10:58:25.671Z,13.77
2023-04-01T11:01:08.637Z,14.07
2023-04-01T11:04:03.416Z,9.95
2023-04-01T11:07:02.992Z,15.10
2023-04-01T11:09:30.374Z,13.85
2023-04-01T11:12:03.369Z,15.68
2023-04-01T11:14:55.665Z,13.55
2023-04-01T11:17:50.840Z,17.87
2023-04-01T11:20:39.458Z,24.98
2023-04-01T11:23:45.514Z,15.88
2023-04-01T11:26:23.697Z,16.15
2023-04-01T11:29:05.041Z,16.58
2023-04-01T11:31:45.904Z,20.80
2023-04-01T11:34:16.639Z,13.50
2023-04-01T11:37:12.736Z,14.00
2023-04-01T11:39:52.616Z,20.55
2023-04-01T11:42:31.280Z,14.75
2023-04-01T11:45:21.281Z,15.15
2023-04-01T11:47:54.470Z,17.38
2023-04-01T11:50:59.575Z,17.45
2023-04-01T11:53:53.431Z,19.83
2023-04-01T11:56:31.812Z,17.52
2023-04-01T11:59:05.137Z,21.63
2023-04-01T12:01:45.313Z,19.25
2023-04-01T12:04:57.584Z,22.45
2023-04-01T12:07:40.007Z,23.63
2023-04-01T12:10:23.164Z,21.33
2023-04-01T12:13:06.133Z,20.63
2023-04-01T12:16:05.717Z,21.98
2023-04-01T12:18:45.283Z,22.35
2023-04-01T12:21:22.668Z,20.88
2023-04-01T12:23:56.158Z,29.25
2023-04-01T12:26:50.979Z,24.77
2023-04-01T12:29:38.440Z,30.27
2023-04-01T12:32:40.844Z,21.48
2023-04-01T12:35:08.265Z,22.17
2023-04-01T12:37:36.537Z,26.63
2023-04-01T12:40:07.744Z,27.55
2023-04-01T12:43:14.849Z,25.95
2023-04-01T12:46:03.826Z,25.65
2023-04-01T12:48:40.475Z,20.58
2023-04-01T12:51:19.975Z,22.73
2023-04-01T12:54:23.634Z,21.00
2023-04-01T12:56:51.463Z,23.08
2023-04-01T12:59:44.004Z,20.42
2023-04-01T13:02:19.611Z,23.73
2023-04-01T13:05:15.786Z,23.77
2023-04-01T13:08:03.396Z,29.30
2023-04-01T13:10:33.874Z,24.15
2023-04-01T13:13:22.200Z,27.75
2023-04-01T13:15:55.960Z,37.10
2023-04-01T13:18:55.649Z,25.70
2023-04-01T13:21:47.195Z,20.08
2023-04-01T13:24:40.916Z,24.20
2023-04-01T13:30:00.387Z,22.00
2023-04-01T13:35:29.720Z,33.47
2023-04-01T13:38:15.097Z,31.20
2023-04-01T13:40:55.692Z,27.05
2023-04-01T13:43:37.712Z,27.88
2023-04-01T13:46:27.241Z,22.85
2023-04-01T13:49:13.192Z,24.40
2023-04-01T13:52:17.911Z,32.35
2023-04-01T13:55:11.316Z,29.75
2023-04-01T13:57:49.388Z,32.03
2023-04-01T14:00:31.840Z,28.60
2023-04-01T14:03:22.570Z,25.52
2023-04-01T14:06:27.647Z,25.27
2023-04-01T14:09:03.951Z,33.60
2023-04-01T14:11:53.628Z,34.60
2023-04-01T14:14:33.125Z,32.63
2023-04-01T14:17:12.634Z,28.40
2023-04-01T14:19:45.791Z,37.72
2023-04-01T14:22:26.476Z,28.30
2023-04-01T14:25:18.037Z,35.70
2023-04-01T14:28:01.596Z,39.78
2023-04-01T14:30:34.933Z,30.17
2023-04-01T14:33:31.384Z,27.38
2023-04-01T14:36:30.091Z,29.80
2023-04-01T14:39:22.262Z,35.90
2023-04-01T14:41:50.495Z,30.73
2023-04-01T14:44:25.824Z,24.80
2023-04-01T14:46:53.216Z,28.40
2023-04-01T14:49:42.905Z,19.65
2023-04-01T14:52:16.678Z,19.17
2023-04-01T14:54:45.890Z,24.02
2023-04-01T14:57:22.607Z,16.50
2023-04-01T14:59:56.039Z,34.78
2023-04-01T15:02:47.307Z,22.48
2023-04-01T15:05:30.237Z,22.52
2023-04-01T15:08:37.918Z,8.88
2023-04-01T15:11:32.772Z,22.85
2023-04-01T15:14:14.762Z,25.00
2023-04-01T15:16:47.969Z,17.77
2023-04-01T15:19:33.875Z,14.75
2023-04-01T15:22:14.278Z,13.65
2023-04-01T15:24:49.678Z,8.43
2023-04-01T15:27:23.260Z,7.15
2023-04-01T15:29:53.669Z,9.32
2023-04-01T15:32:26.321Z,12.60
2023-04-01T15:35:21.128Z,13.48
2023-04-01T15:37:59.825Z,10.10
2023-04-01T15:40:48.920Z,8.70
2023-04-01T15:43:31.700Z,10.55
2023-04-01T15:46:28.809Z,15.00
2023-04-01T15:49:23.749Z,10.98
2023-04-01T15:52:21.039Z,10.10
2023-04-01T15:55:10.262Z,12.77
2023-04-01T15:58:03.550Z,12.20
2023-04-01T16:00:32.056Z,6.43
2023-04-01T16:03:31.388Z,11.70
2023-04-01T16:06:16.805Z,9.73
2023-04-01T16:09:09.739Z,11.68
2023-04-01T16:11:43.715Z,8.18
2023-04-01T16:14:31.500Z,7.93
2023-04-01T16:17:17.019Z,7.20
2023-04-01T16:19:59.192Z,5.22
2023-04-01T16:22:32.735Z,6.93
2023-04-01T16:25:44.083Z,5.72
2023-04-01T16:28:25.519Z,6.22
2023-04-01T16:34:21.298Z,9.48
2023-04-01T16:36:53.923Z,11.45
2023-04-01T16:39:28.690Z,11.25
2023-04-01T16:42:07.448Z,9.02
2023-04-01T16:44:57.159Z,8.57
2023-04-01T16:47:32.531Z,7.07
2023-04-01T16:50:18.375Z,12.65
2023-04-01T16:53:14.757Z,12.82
2023-04-01T16:55:43.668Z,12.20
2023-04-01T16:58:12.008Z,11.82
2023-04-01T17:00:46.404Z,6.32
2023-04-01T17:03:38.081Z,8.10
2023-04-01T17:06:30.726Z,8.00
2023-04-01T17:09:26.580Z,15.00
2023-04-01T17:12:25.348Z,8.63
2023-04-01T17:15:26.725Z,10.82
2023-04-01T17:18:02.604Z,8.52
2023-04-01T17:21:07.208Z,10.32
2023-04-01T17:23:46.886Z,7.32
2023-04-01T17:26:41.573Z,8.32
2023-04-01T17:29:13.870Z,8.23
2023-04-01T17:32:26.240Z,11.40
2023-04-01T17:35:41.541Z,12.65
2023-04-01T17:38:36.872Z,8.48
2023-04-01T17:41:10.198Z,7.93
2023-04-01T17:44:17.270Z,9.77
2023-04-01T17:47:18.494Z,9.02
2023-04-01T17:50:08.845Z,7.55
2023-04-01T17:52:48.526Z,8.48
2023-04-01T17:55:38.852Z,13.82
2023-04-01T17:58:09.403Z,9.02
2023-04-01T18:01:04.074Z,6.20
2023-04-01T18:03:57.921Z,9.25
2023-04-01T18:06:41.378Z,5.65
2023-04-01T18:09:42.805Z,6.30
2023-04-01T18:12:34.569Z,3.53
2023-04-01T18:15:35.479Z,11.25
2023-04-01T18:18:16.811Z,10.18
2023-04-01T18:20:45.705Z,6.88
2023-04-01T18:23:21.609Z,6.05
2023-04-01T18:25:49.645Z,6.18
2023-04-01T18:28:32.205Z,9.82
2023-04-01T18:31:07.078Z,9.20
2023-04-01T18:33:51.427Z,7.57
2023-04-01T18:36:38.797Z,11.48
2023-04-01T18:39:13.505Z,12.07
2023-04-01T18:41:41.572Z,9.27
2023-04-01T18:44:30.381Z,14.82
2023-04-01T18:47:16.089Z,9.50
2023-04-01T18:49:53.378Z,7.68
2023-04-01T18:52:22.339Z,10.55
2023-04-01T18:55:06.188Z,9.80
2023-04-01T18:57:42.155Z,13.60
2023-04-01T19:00:15.902Z,10.93
2023-04-01T19:02:59.344Z,11.38
2023-04-01T19:05:31.677Z,9.35
2023-04-01T19:08:34.064Z,16.08
2023-04-01T19:11:11.371Z,10.65
2023-04-01T19:13:43.342Z,11.52
2023-04-01T19:16:25.836Z,9.48
2023-04-01T19:18:53.766Z,9.70
2023-04-01T19:21:30.384Z,15.25
2023-04-01T19:24:18.926Z,10.05
2023-04-01T19:27:18.793Z,14.00
2023-04-01T19:30:12.511Z,8.35
2023-04-01T19:32:46.623Z,6.88
2023-04-01T19:35:18.631Z,10.02
2023-04-01T19:38:06.285Z,6.78
2023-04-01T19:40:54.600Z,10.52
2023-04-01T19:43:31.464Z,8.90
2023-04-01T19:46:20.256Z,6.55
2023-04-01T19:48:51.009Z,6.80
2023-04-01T19:51:29.496Z,10.90
2023-04-01T19:54:18.037Z,9.52
2023-04-01T19:57:06.569Z,9.02
2023-04-01T19:59:54.453Z,14.80
2023-04-01T20:02:52.070Z,6.95
2023-04-01T20:06:01.470Z,10.95
2023-04-01T20:08:35.872Z,4.70
2023-04-01T20:11:18.831Z,11.30
2023-04-01T20:13:55.563Z,8.18
2023-04-01T20:16:23.617Z,11.80
2023-04-01T20:19:01.506Z,7.38
2023-04-01T20:21:58.141Z,12.20
2023-04-01T20:24:31.903Z,11.02
2023-04-01T20:27:18.574Z,6.80
2023-04-01T20:29:48.940Z,6.60
2023-04-01T20:32:35.566Z,18.90
2023-04-01T20:35:35.132Z,5.95
2023-04-01T20:38:37.884Z,9.57
2023-04-01T20:41:20.978Z,8.95
2023-04-01T20:44:12.363Z,9.43
2023-04-01T20:46:58.774Z,9.40
2023-04-01T20:49:55.186Z,11.85
2023-04-01T20:52:38.345Z,11.93
2023-04-01T20:55:13.650Z,8.35
2023-04-01T20:57:51.849Z,15.93
2023-04-01T21:00:36.001Z,11.73
2023-04-01T21:03:12.351Z,8.40
2023-04-01T21:05:49.839Z,12.65
2023-04-01T21:08:46.217Z,13.88
2023-04-01T21:11:55.472Z,13.23
2023-04-01T21:14:35.436Z,9.45
2023-04-01T21:17:16.136Z,16.93
2023-04-01T21:19:49.308Z,18.95
2023-04-01T21:22:25.449Z,17.77
2023-04-01T21:25:23.427Z,10.15
2023-04-01T21:28:11.870Z,8.00
2023-04-01T21:30:50.353Z,11.18
2023-04-01T21:33:31.622Z,8.95
2023-04-01T21:36:11.182Z,6.65
2023-04-01T21:38:42.521Z,10.52
2023-04-01T21:41:16.404Z,14.18
2023-04-01T21:44:01.899Z,7.78
2023-04-01T21:46:52.271Z,9.50
2023-04-01T21:49:38.399Z,9.95
2023-04-01T21:52:05.780Z,9.05
2023-04-01T21:55:09.812Z,11.07
2023-04-01T21:58:03.352Z,7.05
2023-04-01T22:00:54.566Z,11.18
2023-04-01T22:04:07.790Z,6.45
2023-04-01T22:06:48.616Z,5.75
2023-04-01T22:09:35.834Z,14.15
2023-04-01T22:12:19.267Z,8.05
2023-04-01T22:14:59.193Z,11.95
2023-04-01T22:17:41.991Z,14.35
2023-04-01T22:20:22.383Z,10.20
2023-04-01T22:23:23.431Z,10.82
2023-04-01T22:25:53.669Z,14.63
2023-04-01T22:28:30.143Z,12.15
2023-04-01T22:31:02.860Z,9.68
2023-04-01T22:33:42.396Z,7.57
2023-04-01T22:36:15.954Z,11.27
2023-04-01T22:39:08.543Z,9.15
2023-04-01T22:42:08.183Z,13.45
2023-04-01T22:44:54.891Z,8.38
2023-04-01T22:47:31.664Z,11.52
2023-04-01T22:50:12.030Z,9.13
2023-04-01T22:52:43.571Z,9.15
2023-04-01T22:55:17.252Z,3.92
2023-04-01T22:58:06.895Z,8.52
2023-04-01T23:00:43.136Z,7.40
2023-04-01T23:03:29.593Z,9.05
2023-04-01T23:05:58.437Z,7.85
2023-04-01T23:08:50.821Z,7.60
2023-04-01T23:11:21.064Z,9.73
2023-04-01T23:14:05.165Z,9.55
2023-04-01T23:16:37.186Z,4.00
2023-04-01T23:19:34.522Z,10.90
2023-04-01T23:22:19.091Z,7.75
2023-04-01T23:25:01.714Z,6.30
2023-04-01T23:27:29.115Z,4.90
2023-04-01T23:29:56.392Z,7.45
2023-04-01T23:32:27.110Z,12.25
2023-04-01T23:34:56.141Z,5.15
2023-04-01T23:37:23.549Z,9.95
2023-04-01T23:39:55.056Z,8.32
2023-04-01T23:44:52.723Z,9.20
2023-04-01T23:47:23.030Z,8.65
2023-04-01T23:49:53.491Z,6.75
2023-04-01T23:52:31.174Z,5.70
2023-04-01T23:55:12.514Z,6.50
2023-04-01T23:57:40.069Z,7.30
